Airfield :







YOU CAN JOIN US ON...

 
LOGIN :

Register | Disclaimer

   EN    FR    IT 

 









Legend :    VFR   Marginal VFR   IFR   Intensive IFR   Very Intensive IFR
Visi :
Ceiling :
>= 8 km
>= 3000ft
5 to 8 km
1000 to 3000 ft
1500m to 5 km
500 to 1000 ft
800 to 1500m
200 to 500 ft
< 800m
< 200 ft
Symbols :   Thunderstorms  Fog  Heavy snow  Heavy precipitations  Wind > 20 kt







- Airport Elevation : 244 ft
- IATA code : YQB


CYQB - Quebec - Jean Lesage Int.

CURRENT METAR :
  • 241800Z VRB04KT 30SM FEW035 BKN056 16/09 A2998 RMK CU2SC4 SLP157 DENSITY ALT 400FT

EXPIRED METARs :
  • 241700Z 06009G15KT 040V100 30SM FEW030 BKN056 16/08 A2998 RMK CU2SC4 SLP157 DENSITY ALT 400FT
  • 241600Z 06012G17KT 050V110 30SM BKN051 15/07 A2998 RMK SC7 SLP154 DENSITY ALT 300FT

TAF TAF CYQB
Valid from the 24 at 18:00 until the 25 at 18:00 UTC


241738Z 2418/2518 06012KT P6SM BKN040
FM242100 06008KT P6SM -SHRA BKN040
FM250200 26005KT P6SM BKN040
TEMPO 2502/2509 BKN020
FM250900 23005KT P6SM SCT020
TEMPO 2509/2515 BKN020
FM251500 21012KT P6SM SCT050 RMK NXT FCST BY 250000Z
ATIS : ENG : +1 418-871-6893 FRA : +1 418-871-6895
CZUL FIR / North America



MET'MAP, your aeronautical weather chart ! - Copyright ORBIFLY December 2007 - Disclaimer

ORBIFLY MET'MAP TEAM :

Programming & Development : Alexandra Zaïnal
Concept & Development : Baudouin d'Aumeries
Co-Development & Prog : Marc-Olivier Méhu
Technical & hardware support : Manuel Goepfert

Contact : metmap@orbifly.com




SOURCES & CREDITS :

   NOAA